Time;durP1;ratioP1;P1;durP2;ratioP2;P2;SDS_P1;SDS_P2;PMS_P1;PMS_P2;Temp;Humidity;BMP_temperature;BMP_pressure;BME280_temperature;BME280_humidity;BME280_pressure;Samples;Min_cycle;Max_cycle;Signal;HPM_P1;HPM_P2
2022/06/11 00:00:18;;;;;;;6.40;4.73;;;19.70;99.00;;;;;;5013902;28;20926;-61
2022/06/11 00:02:45;;;;;;;4.83;4.33;;;19.80;99.00;;;;;;5014067;28;20479;-61
2022/06/11 00:05:14;;;;;;;6.87;4.20;;;20.00;98.40;;;;;;5013826;28;20542;-61
2022/06/11 00:07:42;;;;;;;7.40;5.03;;;19.90;98.60;;;;;;5013913;28;20450;-61
2022/06/11 00:10:10;;;;;;;5.53;4.33;;;19.40;99.90;;;;;;5013266;28;20482;-61
2022/06/11 00:12:38;;;;;;;5.63;4.40;;;19.20;99.90;;;;;;5013609;28;20890;-61
2022/06/11 00:15:06;;;;;;;8.93;4.70;;;19.50;99.90;;;;;;5013786;28;20542;-61
2022/06/11 00:17:33;;;;;;;5.67;4.80;;;19.60;99.10;;;;;;5013565;28;20489;-61
2022/06/11 00:20:01;;;;;;;5.47;4.97;;;19.80;99.10;;;;;;5013428;28;20883;-61
2022/06/11 00:22:30;;;;;;;5.30;4.80;;;19.80;99.30;;;;;;5013712;28;20883;-61
2022/06/11 00:24:57;;;;;;;4.80;4.17;;;19.50;99.40;;;;;;5013589;28;20505;-60
2022/06/11 00:27:24;;;;;;;4.90;4.10;;;18.90;99.90;;;;;;5013512;28;20451;-61
2022/06/11 00:29:53;;;;;;;5.27;4.00;;;19.10;99.90;;;;;;5013607;28;20471;-61
2022/06/11 00:32:20;;;;;;;5.93;4.47;;;19.10;99.90;;;;;;5013402;28;20435;-60
2022/06/11 00:34:48;;;;;;;5.40;4.63;;;19.40;99.90;;;;;;5013522;28;20462;-60
2022/06/11 00:37:18;;;;;;;4.90;4.00;;;19.40;99.90;;;;;;5013387;28;20455;-60
2022/06/11 00:39:47;;;;;;;6.30;4.97;;;19.50;99.70;;;;;;5013713;28;20479;-60
2022/06/11 00:42:17;;;;;;;8.53;4.93;;;19.50;99.40;;;;;;5013581;28;20504;-60
2022/06/11 00:44:46;;;;;;;5.33;4.60;;;19.00;99.90;;;;;;5013470;28;20823;-60
2022/06/11 00:47:19;;;;;;;5.10;4.70;;;18.50;99.90;;;;;;5013309;28;20996;-60
2022/06/11 00:49:53;;;;;;;5.03;4.60;;;18.50;99.90;;;;;;5013104;28;20550;-60
2022/06/11 00:52:30;;;;;;;7.80;4.60;;;19.00;99.90;;;;;;5013565;28;20431;-61
2022/06/11 00:55:04;;;;;;;4.80;4.40;;;19.20;99.90;;;;;;5015833;28;20909;-60
2022/06/11 00:57:36;;;;;;;5.20;4.57;;;19.40;99.90;;;;;;5016942;28;20428;-61
2022/06/11 01:00:09;;;;;;;5.50;4.63;;;19.30;99.90;;;;;;5017154;28;20439;-60
2022/06/11 01:02:37;;;;;;;5.33;4.00;;;18.80;99.90;;;;;;5016809;28;20546;-60
2022/06/11 01:05:06;;;;;;;5.10;4.60;;;18.60;99.90;;;;;;5017317;28;20546;-61
2022/06/11 01:07:44;;;;;;;6.20;5.60;;;18.30;99.90;;;;;;5016654;28;20533;-61
2022/06/11 01:10:25;;;;;;;5.30;4.60;;;18.60;99.90;;;;;;5015666;28;20566;-61
2022/06/11 01:13:01;;;;;;;4.60;4.20;;;18.70;99.90;;;;;;5017194;28;20427;-60
2022/06/11 01:15:32;;;;;;;5.83;4.57;;;18.40;99.90;;;;;;5016984;28;20492;-60
2022/06/11 01:18:10;;;;;;;4.80;4.40;;;18.00;99.90;;;;;;5016729;28;20526;-61
2022/06/11 01:20:46;;;;;;;6.23;4.67;;;17.80;99.90;;;;;;5016562;28;20478;-61
2022/06/11 01:23:44;;;;;;;5.97;4.07;;;17.80;99.90;;;;;;5016588;28;20474;-60
2022/06/11 01:26:37;;;;;;;5.70;5.20;;;17.80;99.90;;;;;;5026222;28;20521;-60
2022/06/11 01:29:33;;;;;;;4.80;4.40;;;17.80;99.90;;;;;;5026325;28;20485;-60
2022/06/11 01:32:06;;;;;;;4.40;4.00;;;17.80;99.90;;;;;;5036326;28;20473;-60
2022/06/11 01:34:38;;;;;;;5.07;4.57;;;17.60;99.90;;;;;;5036550;28;20792;-60
2022/06/11 01:37:10;;;;;;;4.70;4.30;;;18.20;99.90;;;;;;5036535;28;20437;-61
2022/06/11 01:39:47;;;;;;;5.37;4.80;;;18.60;99.90;;;;;;5036541;28;20987;-60
2022/06/11 01:42:17;;;;;;;4.57;4.10;;;18.70;99.90;;;;;;5036160;28;20430;-60
2022/06/11 01:44:46;;;;;;;5.90;4.70;;;18.80;99.90;;;;;;5036292;28;20453;-60
2022/06/11 01:47:15;;;;;;;4.30;4.00;;;18.70;99.90;;;;;;5036223;28;20450;-60
2022/06/11 01:49:46;;;;;;;5.93;4.47;;;18.50;99.90;;;;;;5036217;28;20566;-60
2022/06/11 01:52:37;;;;;;;4.47;4.03;;;18.40;99.90;;;;;;5035835;28;20904;-61
2022/06/11 01:55:18;;;;;;;8.33;4.40;;;18.60;99.90;;;;;;5035982;28;20430;-61
2022/06/11 01:57:56;;;;;;;6.53;3.67;;;18.50;99.90;;;;;;5035973;28;20438;-61
2022/06/11 02:00:27;;;;;;;5.07;4.60;;;18.50;99.90;;;;;;5035777;28;20466;-60
2022/06/11 02:03:12;;;;;;;4.53;4.13;;;18.00;99.90;;;;;;5035766;28;20557;-60
2022/06/11 02:05:55;;;;;;;4.43;4.00;;;18.20;99.90;;;;;;5035136;28;20478;-60
2022/06/11 02:08:26;;;;;;;4.73;3.90;;;18.40;99.90;;;;;;5035589;28;20465;-61
2022/06/11 02:11:06;;;;;;;5.93;5.20;;;18.50;99.90;;;;;;5035224;28;20502;-61
2022/06/11 02:13:40;;;;;;;4.23;3.87;;;18.00;99.90;;;;;;5035816;28;20470;-61
2022/06/11 02:16:17;;;;;;;6.00;5.17;;;18.50;99.90;;;;;;5035431;28;20430;-61
2022/06/11 02:18:47;;;;;;;4.40;4.00;;;18.30;99.90;;;;;;5035563;28;20470;-60
2022/06/11 02:21:18;;;;;;;6.97;5.00;;;18.60;99.90;;;;;;5035470;28;20454;-61
2022/06/11 02:23:51;;;;;;;5.63;4.00;;;18.70;99.90;;;;;;5035445;28;20830;-60
2022/06/11 02:26:22;;;;;;;6.70;4.03;;;18.80;99.90;;;;;;5024763;28;20478;-61
2022/06/11 02:28:51;;;;;;;6.23;4.70;;;19.00;99.90;;;;;;5015393;28;20477;-61
2022/06/11 02:31:25;;;;;;;4.00;3.63;;;19.20;99.90;;;;;;5015537;28;20455;-61
2022/06/11 02:33:53;;;;;;;3.77;3.43;;;18.70;99.90;;;;;;5015508;28;20430;-61
2022/06/11 02:36:23;;;;;;;3.93;3.63;;;19.00;99.90;;;;;;5015594;28;20597;-60
2022/06/11 02:38:51;;;;;;;4.30;3.70;;;19.00;99.90;;;;;;5015391;28;20578;-60
2022/06/11 02:41:22;;;;;;;4.33;3.93;;;18.90;99.90;;;;;;5015113;28;20537;-60
2022/06/11 02:43:50;;;;;;;4.50;3.83;;;19.00;99.90;;;;;;5015065;28;20467;-60
2022/06/11 02:49:04;;;;;;;8.03;3.80;;;19.50;99.90;;;;;;5015152;28;20530;-61
2022/06/11 02:51:32;;;;;;;4.07;3.77;;;19.50;99.90;;;;;;5014905;28;20455;-61
2022/06/11 02:54:00;;;;;;;4.00;3.60;;;19.50;99.90;;;;;;5015227;28;20889;-61
2022/06/11 02:56:28;;;;;;;3.67;3.33;;;19.00;99.90;;;;;;5026596;28;20995;-61
2022/06/11 02:58:56;;;;;;;4.83;4.30;;;18.90;99.90;;;;;;5034869;28;20469;-61
2022/06/11 03:01:25;;;;;;;6.50;4.50;;;19.10;99.90;;;;;;5034443;28;20454;-61
2022/06/11 03:03:53;;;;;;;3.60;3.30;;;19.20;99.90;;;;;;5034474;28;20573;-61
2022/06/11 03:06:23;;;;;;;4.10;3.70;;;19.30;99.90;;;;;;5034675;28;20876;-61
2022/06/11 03:08:50;;;;;;;4.80;3.70;;;19.40;99.90;;;;;;5034508;28;20596;-61
2022/06/11 03:11:18;;;;;;;5.53;4.47;;;19.40;99.90;;;;;;5034099;28;20565;-61
2022/06/11 03:13:45;;;;;;;4.97;3.87;;;19.40;99.90;;;;;;5034645;28;20465;-61
2022/06/11 03:16:13;;;;;;;5.37;3.70;;;19.50;99.90;;;;;;5034170;28;20949;-61
2022/06/11 03:18:42;;;;;;;4.07;3.77;;;19.30;99.90;;;;;;5033612;28;20573;-61
2022/06/11 03:21:09;;;;;;;3.80;3.17;;;19.20;99.90;;;;;;5034297;28;20446;-61
2022/06/11 03:23:37;;;;;;;4.83;3.80;;;19.30;99.90;;;;;;5034251;28;20822;-61
2022/06/11 03:26:06;;;;;;;5.33;4.10;;;19.80;99.90;;;;;;5034286;28;20571;-61
2022/06/11 03:28:35;;;;;;;3.80;3.50;;;19.60;99.60;;;;;;5033857;28;20450;-61
2022/06/11 03:31:05;;;;;;;3.93;3.60;;;19.10;99.90;;;;;;5034082;28;20961;-60
2022/06/11 03:33:33;;;;;;;3.47;3.17;;;18.40;99.90;;;;;;5033979;28;20427;-61
2022/06/11 03:36:03;;;;;;;4.10;3.70;;;17.90;99.90;;;;;;5034224;28;20541;-61
2022/06/11 03:38:30;;;;;;;3.63;3.33;;;18.20;99.90;;;;;;5033866;28;20817;-61
2022/06/11 03:40:58;;;;;;;3.63;3.30;;;18.30;99.90;;;;;;5033855;28;20532;-61
2022/06/11 03:43:25;;;;;;;4.00;3.47;;;18.20;99.90;;;;;;5033733;28;20466;-61
2022/06/11 03:45:52;;;;;;;4.37;3.10;;;18.00;99.90;;;;;;5034050;28;20452;-60
2022/06/11 03:48:20;;;;;;;4.53;4.13;;;18.20;99.90;;;;;;5033579;28;21016;-61
2022/06/11 03:50:47;;;;;;;3.90;3.60;;;18.60;99.90;;;;;;5034004;28;20580;-61
2022/06/11 03:53:16;;;;;;;4.63;3.53;;;18.90;99.90;;;;;;5033825;28;20873;-61
2022/06/11 03:55:45;;;;;;;4.03;3.63;;;18.60;99.90;;;;;;5033762;28;20481;-60
2022/06/11 03:58:13;;;;;;;3.87;3.57;;;18.60;99.90;;;;;;5033722;28;20556;-60
2022/06/11 04:03:26;;;;;;;5.40;3.23;;;18.40;99.90;;;;;;5033663;28;21019;-61
2022/06/11 04:05:55;;;;;;;6.53;4.00;;;18.20;99.90;;;;;;5033600;28;20446;-60
2022/06/11 04:08:25;;;;;;;4.40;4.00;;;17.90;99.90;;;;;;5033192;28;20493;-60
2022/06/11 04:10:54;;;;;;;6.07;4.07;;;17.80;99.90;;;;;;5033040;28;20477;-61
2022/06/11 04:13:22;;;;;;;6.30;4.00;;;17.60;99.90;;;;;;5033674;28;20521;-61
2022/06/11 04:15:51;;;;;;;3.63;3.33;;;17.30;99.90;;;;;;5033472;28;20446;-61
2022/06/11 04:18:30;;;;;;;3.90;3.57;;;17.50;99.90;;;;;;5033271;28;20817;-60
2022/06/11 04:20:58;;;;;;;4.10;3.80;;;17.20;99.90;;;;;;5033165;28;20469;-60
2022/06/11 04:23:29;;;;;;;6.53;4.37;;;17.30;99.90;;;;;;5033148;28;20521;-60
2022/06/11 04:25:57;;;;;;;4.13;3.70;;;17.20;99.90;;;;;;5033310;28;20476;-60
2022/06/11 04:28:32;;;;;;;5.20;4.70;;;17.30;99.90;;;;;;5032951;28;20446;-60
2022/06/11 04:31:01;;;;;;;5.00;4.60;;;17.00;99.90;;;;;;5033136;28;20430;-61
2022/06/11 04:33:28;;;;;;;4.80;4.30;;;17.00;99.90;;;;;;5033084;28;20537;-61
2022/06/11 04:35:56;;;;;;;4.70;4.27;;;16.80;99.90;;;;;;5033058;28;20434;-61
2022/06/11 04:38:23;;;;;;;4.07;3.60;;;16.80;99.90;;;;;;5033115;28;20454;-60
2022/06/11 04:40:53;;;;;;;10.00;4.00;;;16.70;99.90;;;;;;5032944;28;21019;-60
2022/06/11 04:43:21;;;;;;;6.67;4.57;;;16.70;99.90;;;;;;5033269;28;20449;-60
2022/06/11 04:45:49;;;;;;;7.60;5.20;;;16.80;99.90;;;;;;5033259;28;20449;-61
2022/06/11 04:48:16;;;;;;;6.20;3.93;;;16.70;99.90;;;;;;5033322;28;20446;-61
2022/06/11 04:50:44;;;;;;;4.40;4.00;;;16.80;99.90;;;;;;5032875;28;21000;-61
2022/06/11 04:53:11;;;;;;;4.30;3.87;;;17.00;99.90;;;;;;5033033;28;20541;-61
2022/06/11 04:55:40;;;;;;;4.87;4.13;;;17.40;99.90;;;;;;5032959;28;20928;-61
2022/06/11 04:58:09;;;;;;;9.23;5.53;;;17.30;99.90;;;;;;5032795;28;20450;-60
2022/06/11 05:00:36;;;;;;;8.07;6.07;;;17.10;99.90;;;;;;5032608;28;20556;-61
2022/06/11 05:03:04;;;;;;;6.57;5.00;;;17.00;99.90;;;;;;5032924;28;20449;-61
2022/06/11 05:05:32;;;;;;;8.63;5.47;;;16.80;99.90;;;;;;5032707;28;21063;-61
2022/06/11 05:08:00;;;;;;;5.07;4.57;;;16.90;99.90;;;;;;5032603;28;20462;-61
2022/06/11 05:10:29;;;;;;;6.67;4.17;;;16.80;99.90;;;;;;5032490;28;20485;-60
2022/06/11 05:12:57;;;;;;;4.47;3.90;;;16.80;99.90;;;;;;5032824;28;20501;-60
2022/06/11 05:15:26;;;;;;;4.63;3.90;;;16.90;99.90;;;;;;5032941;28;20446;-60
2022/06/11 05:17:53;;;;;;;5.53;3.60;;;16.90;99.90;;;;;;5032727;28;20446;-61
2022/06/11 05:20:21;;;;;;;4.03;2.70;;;17.00;99.90;;;;;;5032514;28;20473;-60
2022/06/11 05:22:49;;;;;;;5.50;3.60;;;17.10;99.90;;;;;;5033022;28;20811;-60
2022/06/11 05:25:19;;;;;;;3.63;3.40;;;17.40;99.90;;;;;;5032361;28;20477;-60
2022/06/11 05:27:48;;;;;;;4.00;3.60;;;17.40;99.90;;;;;;5032698;28;20481;-60
2022/06/11 05:30:20;;;;;;;4.10;3.60;;;17.60;99.90;;;;;;5032618;28;20476;-60
2022/06/11 05:32:49;;;;;;;4.13;3.73;;;17.50;99.90;;;;;;5032593;28;20526;-60
2022/06/11 05:35:19;;;;;;;4.90;4.03;;;17.70;99.90;;;;;;5032767;28;20452;-60
2022/06/11 05:37:49;;;;;;;3.87;3.10;;;17.70;99.90;;;;;;5032476;28;20955;-60
2022/06/11 05:40:19;;;;;;;3.77;3.47;;;17.80;99.90;;;;;;5032384;28;20469;-60
2022/06/11 05:42:48;;;;;;;4.40;4.00;;;17.70;99.90;;;;;;5036066;28;20442;-61
2022/06/11 05:45:17;;;;;;;4.13;3.57;;;17.80;99.90;;;;;;5036071;28;20478;-61
2022/06/11 05:47:46;;;;;;;3.93;3.20;;;17.90;99.90;;;;;;5036024;28;20446;-60
2022/06/11 05:50:19;;;;;;;3.90;3.13;;;18.30;99.90;;;;;;5035677;28;20981;-61
2022/06/11 05:52:47;;;;;;;6.83;3.20;;;18.50;99.90;;;;;;5036344;28;20476;-60
2022/06/11 05:55:15;;;;;;;4.70;2.93;;;18.80;99.90;;;;;;5035920;28;20446;-61
2022/06/11 05:57:44;;;;;;;5.00;3.20;;;19.10;99.90;;;;;;5035963;28;20481;-60
2022/06/11 06:00:16;;;;;;;6.90;3.47;;;19.50;99.90;;;;;;5035696;28;20912;-61
2022/06/11 06:02:45;;;;;;;3.80;3.43;;;19.70;99.90;;;;;;5035905;28;20829;-61
2022/06/11 06:05:18;;;;;;;3.83;3.13;;;19.70;99.90;;;;;;5035507;28;20834;-61
2022/06/11 06:07:45;;;;;;;3.33;3.03;;;19.50;99.90;;;;;;5035656;28;20480;-60
2022/06/11 06:10:13;;;;;;;6.20;3.50;;;19.40;99.90;;;;;;5035487;28;20485;-60
2022/06/11 06:12:40;;;;;;;4.00;3.27;;;19.20;99.90;;;;;;5035256;28;20486;-60
2022/06/11 06:15:10;;;;;;;3.37;3.07;;;19.00;99.90;;;;;;5035434;28;20542;-61
2022/06/11 06:17:37;;;;;;;5.63;3.60;;;19.00;99.90;;;;;;5035533;28;20482;-61
2022/06/11 06:20:06;;;;;;;4.57;3.80;;;19.10;99.90;;;;;;5035281;28;20470;-61
2022/06/11 06:22:35;;;;;;;4.10;3.77;;;19.00;99.90;;;;;;5035095;28;20868;-61
2022/06/11 06:25:02;;;;;;;4.93;3.50;;;18.90;99.90;;;;;;5035056;28;20569;-61
2022/06/11 06:27:30;;;;;;;4.03;3.63;;;18.90;99.90;;;;;;5035424;28;20827;-60
2022/06/11 06:29:57;;;;;;;4.97;4.00;;;19.00;99.90;;;;;;5034841;28;20826;-61
2022/06/11 06:32:24;;;;;;;3.97;3.57;;;19.10;99.90;;;;;;5035327;28;20456;-60
2022/06/11 06:34:52;;;;;;;5.37;3.70;;;19.10;99.90;;;;;;5034858;28;20445;-61
2022/06/11 06:37:19;;;;;;;4.83;3.60;;;19.20;99.90;;;;;;5034883;28;20549;-61
2022/06/11 06:39:47;;;;;;;4.03;3.73;;;19.30;99.90;;;;;;5034655;28;20972;-61
2022/06/11 06:42:15;;;;;;;4.03;3.73;;;19.40;99.90;;;;;;5035246;28;20446;-61
2022/06/11 06:44:42;;;;;;;4.80;4.07;;;19.50;99.90;;;;;;5034605;28;20836;-61
2022/06/11 06:47:09;;;;;;;4.33;3.73;;;19.50;99.90;;;;;;5034828;28;20437;-60
2022/06/11 06:49:36;;;;;;;4.60;3.93;;;19.40;99.90;;;;;;5034558;28;20566;-61
2022/06/11 06:52:04;;;;;;;3.60;3.30;;;19.40;99.90;;;;;;5034465;28;20540;-61
2022/06/11 06:54:32;;;;;;;3.67;3.00;;;19.50;99.90;;;;;;5034547;28;20988;-61
2022/06/11 06:57:00;;;;;;;3.70;3.40;;;19.70;99.90;;;;;;5034421;28;20941;-61
2022/06/11 06:59:27;;;;;;;6.90;4.00;;;19.80;99.90;;;;;;5034390;28;21031;-61
2022/06/11 07:01:55;;;;;;;3.47;2.90;;;20.20;99.90;;;;;;5034855;28;20505;-61
2022/06/11 07:04:22;;;;;;;4.93;3.57;;;20.90;99.90;;;;;;5034644;28;20482;-61
2022/06/11 07:06:49;;;;;;;3.17;2.93;;;21.60;99.90;;;;;;5034393;28;20541;-61
2022/06/11 07:09:16;;;;;;;3.93;3.63;;;22.10;98.90;;;;;;5034568;28;20485;-61
2022/06/11 07:11:43;;;;;;;4.77;3.43;;;22.70;98.20;;;;;;5034123;28;20503;-61
2022/06/11 07:14:12;;;;;;;8.53;3.30;;;23.60;97.40;;;;;;5034583;28;20863;-61
2022/06/11 07:16:44;;;;;;;4.13;3.73;;;24.10;96.20;;;;;;5034293;28;20454;-61
2022/06/11 07:19:15;;;;;;;4.87;3.57;;;24.40;96.00;;;;;;5034089;28;20501;-61
2022/06/11 07:21:46;;;;;;;7.90;3.60;;;24.20;95.80;;;;;;5034462;28;20505;-61
2022/06/11 07:24:19;;;;;;;6.53;3.23;;;24.20;96.00;;;;;;5034010;28;20580;-61
2022/06/11 07:26:49;;;;;;;4.57;2.97;;;24.70;94.70;;;;;;5034282;28;20536;-61
2022/06/11 07:29:21;;;;;;;5.53;2.80;;;24.60;94.60;;;;;;5033677;28;21000;-61
2022/06/11 07:31:55;;;;;;;3.77;2.63;;;24.50;94.00;;;;;;5033914;28;20517;-61
2022/06/11 07:34:25;;;;;;;4.80;3.23;;;25.00;94.60;;;;;;5033897;28;20446;-61
2022/06/11 07:36:53;;;;;;;4.40;3.37;;;25.10;93.90;;;;;;5034135;28;20501;-61
2022/06/11 07:39:20;;;;;;;4.20;3.60;;;24.80;93.60;;;;;;5033587;28;20474;-61
2022/06/11 07:41:47;;;;;;;5.17;2.77;;;25.10;94.50;;;;;;5034034;28;20454;-61
2022/06/11 07:44:14;;;;;;;8.30;3.20;;;25.60;93.50;;;;;;5033924;28;20478;-61
2022/06/11 07:46:43;;;;;;;6.23;3.33;;;26.10;94.10;;;;;;5033964;28;20454;-61
2022/06/11 07:49:10;;;;;;;5.63;2.70;;;26.00;92.80;;;;;;5034061;28;20556;-62
2022/06/11 07:51:37;;;;;;;3.50;2.60;;;26.70;92.20;;;;;;5033937;28;20457;-62
2022/06/11 07:54:05;;;;;;;5.03;3.33;;;27.10;92.00;;;;;;5033616;28;20489;-62
2022/06/11 07:56:32;;;;;;;6.60;3.23;;;27.60;92.00;;;;;;5033626;28;20864;-61
2022/06/11 07:58:59;;;;;;;4.07;3.43;;;27.90;91.00;;;;;;5033501;28;20826;-61
2022/06/11 08:01:27;;;;;;;3.93;3.00;;;27.80;91.00;;;;;;5033427;28;20960;-61
2022/06/11 08:03:55;;;;;;;3.37;3.07;;;27.60;90.70;;;;;;5033019;28;20860;-61
2022/06/11 08:06:23;;;;;;;3.53;3.23;;;27.80;90.40;;;;;;5033611;28;20540;-62
2022/06/11 08:08:50;;;;;;;4.37;3.00;;;27.00;88.40;;;;;;5033548;28;20898;-62
2022/06/11 08:11:18;;;;;;;2.93;2.57;;;27.20;87.20;;;;;;5033131;28;20525;-62
2022/06/11 08:13:46;;;;;;;3.50;3.20;;;27.30;87.20;;;;;;5033534;28;20537;-62
2022/06/11 08:16:14;;;;;;;3.70;3.00;;;27.30;86.50;;;;;;5033605;28;20453;-61
2022/06/11 08:18:42;;;;;;;4.47;3.20;;;27.80;89.60;;;;;;5033371;28;20456;-61
2022/06/11 08:21:10;;;;;;;3.57;2.73;;;28.50;87.60;;;;;;5033207;28;20537;-61
2022/06/11 08:23:39;;;;;;;5.60;3.10;;;28.60;89.70;;;;;;5033365;28;20878;-62
2022/06/11 08:26:06;;;;;;;3.87;2.67;;;28.80;86.30;;;;;;5033235;28;20513;-61
2022/06/11 08:28:33;;;;;;;3.73;3.07;;;29.00;92.50;;;;;;5033215;28;20929;-61
2022/06/11 08:31:04;;;;;;;2.67;2.47;;;29.20;80.50;;;;;;5033255;28;20446;-61
2022/06/11 08:33:33;;;;;;;2.90;2.70;;;29.10;78.60;;;;;;5033384;28;20556;-61
2022/06/11 08:36:00;;;;;;;3.57;2.33;;;28.60;78.00;;;;;;5033345;28;20438;-61
2022/06/11 08:38:29;;;;;;;3.57;2.70;;;28.70;79.90;;;;;;5033091;28;20462;-61
2022/06/11 08:40:57;;;;;;;2.90;2.70;;;29.10;78.70;;;;;;5033348;28;20450;-62
2022/06/11 08:43:28;;;;;;;3.60;2.90;;;28.10;79.10;;;;;;5033191;28;20450;-61
2022/06/11 08:45:59;;;;;;;7.70;2.90;;;28.80;82.10;;;;;;5032943;28;21032;-61
2022/06/11 08:48:40;;;;;;;4.80;3.00;;;29.30;80.40;;;;;;5033098;28;20521;-61
2022/06/11 08:51:16;;;;;;;3.07;2.77;;;29.80;80.00;;;;;;5032956;28;20434;-61
2022/06/11 08:53:45;;;;;;;3.33;3.07;;;29.50;76.10;;;;;;5032971;28;20468;-61
2022/06/11 08:56:18;;;;;;;7.60;2.63;;;28.90;75.20;;;;;;5032597;28;20442;-62
2022/06/11 08:59:00;;;;;;;3.40;3.10;;;28.80;76.20;;;;;;5032956;28;20585;-61
2022/06/11 09:01:36;;;;;;;2.90;2.57;;;29.40;77.60;;;;;;5032613;28;21048;-62
2022/06/11 09:04:20;;;;;;;4.17;2.27;;;30.20;75.30;;;;;;5032984;28;20426;-61
2022/06/11 09:07:13;;;;;;;2.53;2.33;;;30.30;72.50;;;;;;5032672;28;20465;-61
2022/06/11 09:09:59;;;;;;;3.90;3.17;;;30.40;71.00;;;;;;5032835;28;20480;-62
2022/06/11 09:12:57;;;;;;;2.80;2.43;;;30.40;69.00;;;;;;5032910;28;20488;-62
2022/06/11 09:15:43;;;;;;;3.77;2.47;;;30.90;68.90;;;;;;5034219;28;20449;-62
2022/06/11 09:18:54;;;;;;;3.47;2.43;;;30.30;66.70;;;;;;5036549;28;20530;-62
2022/06/11 09:21:39;;;;;;;2.80;2.50;;;30.20;69.70;;;;;;5036432;28;20411;-62
2022/06/11 09:24:24;;;;;;;3.13;2.47;;;30.30;70.80;;;;;;5036285;28;20951;-62
2022/06/11 09:27:00;;;;;;;3.27;2.60;;;30.40;69.80;;;;;;5036275;28;20568;-62
2022/06/11 09:29:33;;;;;;;4.43;2.60;;;30.00;67.50;;;;;;5036302;28;20465;-63
2022/06/11 09:32:08;;;;;;;2.80;2.50;;;30.60;68.60;;;;;;5036140;28;20488;-62
2022/06/11 09:34:40;;;;;;;3.97;2.37;;;31.20;67.20;;;;;;5036176;28;20457;-63
2022/06/11 09:37:14;;;;;;;2.50;2.30;;;30.70;81.50;;;;;;5036251;28;20445;-59
2022/06/11 09:39:42;;;;;;;12.30;4.10;;;;;;;;;;5036433;28;20922;-59
2022/06/11 09:42:38;;;;;;;5.67;3.00;;;32.10;62.60;;;;;;5036195;28;20446;-62
2022/06/11 09:45:14;;;;;;;10.77;3.00;;;31.40;65.00;;;;;;5035684;28;20557;-55
2022/06/11 09:47:51;;;;;;;7.13;2.60;;;30.30;65.50;;;;;;5036077;28;20440;-54
2022/06/11 09:50:23;;;;;;;6.50;2.80;;;29.40;67.10;;;;;;5035719;28;21034;-58
2022/06/11 09:53:04;;;;;;;4.50;2.90;;;28.50;67.80;;;;;;5035899;28;20811;-57
2022/06/11 09:55:38;;;;;;;3.30;2.70;;;28.70;68.10;;;;;;5035964;28;20438;-57
2022/06/11 09:58:15;;;;;;;3.63;2.60;;;28.60;67.40;;;;;;5026663;28;20459;-56
2022/06/11 10:00:47;;;;;;;3.00;2.60;;;27.90;67.60;;;;;;5027995;28;20919;-56
2022/06/11 10:03:25;;;;;;;2.97;2.67;;;27.50;67.00;;;;;;5021565;28;20949;-55
2022/06/11 10:05:58;;;;;;;5.90;2.80;;;27.20;69.10;;;;;;5020871;28;20981;-56
2022/06/11 10:08:36;;;;;;;4.27;2.90;;;26.80;71.10;;;;;;5032203;28;20466;-57
2022/06/11 10:11:06;;;;;;;4.27;3.23;;;26.30;69.50;;;;;;5027483;28;20504;-58
2022/06/11 10:13:42;;;;;;;6.40;3.13;;;26.20;73.10;;;;;;5035240;28;20524;-57
2022/06/11 10:16:21;;;;;;;3.63;2.90;;;25.80;75.10;;;;;;5034589;28;20545;-55
2022/06/11 10:18:50;;;;;;;3.40;3.10;;;25.60;74.60;;;;;;5034346;28;20490;-54
2022/06/11 10:21:19;;;;;;;4.87;2.80;;;25.50;74.90;;;;;;5016101;28;20546;-52
2022/06/11 10:23:51;;;;;;;4.33;2.73;;;25.30;73.50;;;;;;5018193;28;20948;-52
2022/06/11 10:26:26;;;;;;;8.20;3.57;;;25.90;75.00;;;;;;5033852;28;20830;-54
2022/06/11 10:29:10;;;;;;;4.33;3.20;;;26.70;73.10;;;;;;5016272;28;20532;-52
2022/06/11 10:31:45;;;;;;;3.67;2.90;;;27.60;72.00;;;;;;5017784;28;20457;-55
2022/06/11 10:34:16;;;;;;;4.27;2.90;;;27.70;68.90;;;;;;5030905;28;20552;-52
2022/06/11 10:36:49;;;;;;;3.43;2.87;;;28.80;72.60;;;;;;5035289;28;20453;-52
2022/06/11 10:39:22;;;;;;;3.17;2.60;;;29.10;68.30;;;;;;5033323;28;20860;-54
2022/06/11 10:41:56;;;;;;;3.63;3.33;;;30.00;69.50;;;;;;5014986;28;20514;-53
2022/06/11 10:44:37;;;;;;;4.40;3.80;;;30.60;66.90;;;;;;5017557;28;20532;-56
2022/06/11 10:47:15;;;;;;;3.40;2.87;;;30.70;67.40;;;;;;5026998;28;20561;-55
2022/06/11 10:49:43;;;;;;;4.53;3.13;;;30.60;65.90;;;;;;5032797;28;20876;-56
2022/06/11 10:52:21;;;;;;;4.90;3.57;;;30.50;63.80;;;;;;5030300;28;20901;-54
2022/06/11 10:54:48;;;;;;;6.40;3.00;;;30.40;64.60;;;;;;5033838;28;20490;-55
2022/06/11 10:57:21;;;;;;;4.63;2.87;;;30.00;64.10;;;;;;5033261;28;20952;-54
2022/06/11 10:59:56;;;;;;;3.90;2.87;;;29.30;64.30;;;;;;5033876;28;20561;-54
2022/06/11 11:02:29;;;;;;;4.30;3.20;;;29.00;64.50;;;;;;5034741;28;20433;-56
2022/06/11 11:04:59;;;;;;;3.20;2.87;;;28.70;63.70;;;;;;5033708;28;20457;-54
2022/06/11 11:07:27;;;;;;;4.30;2.97;;;28.50;64.50;;;;;;5033767;28;20466;-55
2022/06/11 11:09:59;;;;;;;3.00;2.70;;;29.40;65.50;;;;;;5032720;28;20497;-53
2022/06/11 11:12:30;;;;;;;6.10;3.23;;;30.00;65.50;;;;;;5033783;28;20451;-51
2022/06/11 11:15:03;;;;;;;4.20;2.90;;;30.00;65.30;;;;;;5033392;28;20570;-53
2022/06/11 11:17:33;;;;;;;3.80;2.77;;;29.90;64.50;;;;;;5034773;28;20430;-53
2022/06/11 11:20:32;;;;;;;2.73;2.37;;;29.90;63.70;;;;;;5031222;28;20490;-55
2022/06/11 11:23:05;;;;;;;8.00;3.27;;;29.70;64.00;;;;;;5014484;28;20451;-55
2022/06/11 11:25:38;;;;;;;4.57;3.30;;;28.90;64.70;;;;;;5021073;28;20565;-56
2022/06/11 11:28:07;;;;;;;7.17;3.63;;;28.00;66.10;;;;;;5034229;28;20426;-54
2022/06/11 11:30:38;;;;;;;4.43;2.67;;;27.30;67.20;;;;;;5023104;28;20857;-55
2022/06/11 11:33:24;;;;;;;5.60;3.23;;;27.60;68.20;;;;;;5014232;28;20411;-55
2022/06/11 11:36:01;;;;;;;3.23;3.00;;;28.50;66.40;;;;;;5016304;28;20539;-57
2022/06/11 11:38:29;;;;;;;4.00;2.67;;;28.50;65.80;;;;;;5013229;28;20458;-53
2022/06/11 11:40:58;;;;;;;5.53;3.07;;;28.10;65.30;;;;;;5020965;28;20554;-56
2022/06/11 11:43:33;;;;;;;3.77;3.27;;;27.90;66.00;;;;;;5025432;28;20466;-55
2022/06/11 11:46:04;;;;;;;4.53;3.10;;;28.00;67.60;;;;;;5033838;28;20800;-55
2022/06/11 11:48:35;;;;;;;4.13;2.87;;;28.20;65.50;;;;;;5025424;28;20466;-54
2022/06/11 11:51:06;;;;;;;3.37;3.07;;;28.60;68.40;;;;;;5031988;28;20458;-55
2022/06/11 11:53:39;;;;;;;4.40;3.40;;;29.40;65.50;;;;;;5033765;28;20532;-55
2022/06/11 11:56:25;;;;;;;4.83;2.90;;;29.30;65.80;;;;;;5028705;28;20454;-55
2022/06/11 11:58:57;;;;;;;3.53;2.77;;;29.30;63.80;;;;;;5033382;28;20960;-55
2022/06/11 12:01:28;;;;;;;4.70;3.30;;;29.30;64.10;;;;;;5031493;28;20558;-55
2022/06/11 12:04:05;;;;;;;3.30;3.00;;;29.30;63.80;;;;;;5033437;28;21016;-56
2022/06/11 12:06:35;;;;;;;4.77;2.80;;;29.10;62.70;;;;;;5032847;28;20615;-55
2022/06/11 12:09:04;;;;;;;6.53;3.10;;;29.30;61.90;;;;;;5033563;28;20831;-55
2022/06/11 12:11:35;;;;;;;4.50;2.90;;;30.30;60.20;;;;;;5016150;28;20558;-54
2022/06/11 12:14:06;;;;;;;3.43;3.13;;;30.10;61.20;;;;;;5013937;28;20562;-56
2022/06/11 12:16:42;;;;;;;6.10;2.90;;;29.50;61.60;;;;;;5017816;28;20443;-52
2022/06/11 12:19:19;;;;;;;3.83;3.20;;;28.80;62.70;;;;;;5013715;28;20486;-54
2022/06/11 12:21:51;;;;;;;3.27;2.83;;;28.80;62.80;;;;;;5029363;28;20464;-55
2022/06/11 12:24:23;;;;;;;4.10;3.40;;;28.80;64.20;;;;;;5032173;28;20504;-54
2022/06/11 12:26:54;;;;;;;4.57;3.37;;;28.50;63.30;;;;;;5032179;28;21071;-55
2022/06/11 12:29:27;;;;;;;3.20;2.73;;;28.60;63.90;;;;;;5031684;28;20482;-55
2022/06/11 12:32:06;;;;;;;3.20;2.90;;;28.80;62.90;;;;;;5033331;28;20928;-54
2022/06/11 12:34:33;;;;;;;3.70;2.93;;;29.20;63.50;;;;;;5033242;28;20495;-56
2022/06/11 12:37:06;;;;;;;3.57;2.80;;;29.30;62.20;;;;;;5033078;28;20446;-57
2022/06/11 12:39:44;;;;;;;6.10;3.03;;;29.70;62.50;;;;;;5032926;28;20829;-57
2022/06/11 12:42:23;;;;;;;4.27;3.10;;;29.20;61.60;;;;;;5032849;28;20517;-55
2022/06/11 12:45:12;;;;;;;4.23;2.97;;;28.90;62.00;;;;;;5033412;28;20840;-56
2022/06/11 12:48:03;;;;;;;5.53;3.83;;;29.10;62.90;;;;;;5032909;28;20478;-55
2022/06/11 12:50:44;;;;;;;5.10;3.10;;;29.50;63.40;;;;;;5032185;28;20478;-57
2022/06/11 12:53:20;;;;;;;3.83;3.30;;;29.20;63.50;;;;;;5037238;28;20438;-56
2022/06/11 12:56:10;;;;;;;6.67;3.43;;;29.10;63.00;;;;;;5030503;28;21013;-56
2022/06/11 12:58:57;;;;;;;4.40;3.20;;;28.00;63.90;;;;;;5017140;28;20451;-55
2022/06/11 13:01:30;;;;;;;3.40;3.10;;;27.70;63.40;;;;;;5017255;28;20932;-59
2022/06/11 13:04:23;;;;;;;5.17;3.27;;;27.80;65.70;;;;;;5017077;28;20526;-56
2022/06/11 13:07:12;;;;;;;3.60;3.30;;;27.80;66.80;;;;;;5017370;28;20552;-57
2022/06/11 13:10:08;;;;;;;3.77;3.10;;;27.50;67.20;;;;;;5017015;28;20502;-57
2022/06/11 13:12:50;;;;;;;3.60;3.30;;;27.30;66.70;;;;;;5014317;28;20969;-57
2022/06/11 13:15:32;;;;;;;11.03;3.67;;;27.40;67.10;;;;;;5016008;28;20431;-63
2022/06/11 13:18:13;;;;;;;7.43;3.60;;;27.40;67.20;;;;;;5015834;28;20466;-57